createdAt,value
2018-07-20T00:00:08.625Z,20.20
2018-07-20T00:02:36.768Z,20.20
2018-07-20T00:05:05.846Z,20.10
2018-07-20T00:07:34.007Z,20.10
2018-07-20T00:10:02.143Z,20.00
2018-07-20T00:12:30.302Z,20.00
2018-07-20T00:14:58.450Z,20.00
2018-07-20T00:17:26.605Z,20.00
2018-07-20T00:19:54.762Z,20.00
2018-07-20T00:24:51.034Z,19.90
2018-07-20T00:27:19.194Z,19.90
2018-07-20T00:29:47.342Z,19.90
2018-07-20T00:32:15.503Z,19.80
2018-07-20T00:34:43.655Z,19.80
2018-07-20T00:37:11.815Z,19.80
2018-07-20T00:39:39.967Z,19.80
2018-07-20T00:44:36.255Z,19.80
2018-07-20T00:47:04.409Z,19.70
2018-07-20T00:49:32.558Z,19.40
2018-07-20T00:52:00.718Z,19.40
2018-07-20T00:54:28.934Z,19.40
2018-07-20T00:56:57.126Z,19.40
2018-07-20T00:59:25.274Z,19.40
2018-07-20T01:01:53.442Z,19.40
2018-07-20T01:04:21.634Z,19.40
2018-07-20T01:06:49.853Z,19.40
2018-07-20T01:09:17.983Z,19.40
2018-07-20T01:11:46.139Z,19.40
2018-07-20T01:14:14.285Z,19.30
2018-07-20T01:16:42.538Z,19.30
2018-07-20T01:19:10.691Z,19.20
2018-07-20T01:21:38.837Z,19.10
2018-07-20T01:24:07.189Z,19.10
2018-07-20T01:26:35.354Z,19.00
2018-07-20T01:29:03.501Z,19.00
2018-07-20T01:31:31.663Z,18.90
2018-07-20T01:33:59.817Z,18.80
2018-07-20T01:36:27.969Z,18.70
2018-07-20T01:38:56.136Z,18.80
2018-07-20T01:41:24.322Z,18.80
2018-07-20T01:43:52.532Z,18.80
2018-07-20T01:46:20.668Z,18.80
2018-07-20T01:48:48.850Z,18.80
2018-07-20T01:51:16.998Z,18.80
2018-07-20T01:53:45.168Z,18.80
2018-07-20T01:56:13.314Z,18.80
2018-07-20T01:58:41.491Z,18.60
2018-07-20T02:01:09.664Z,18.50
2018-07-20T02:03:37.822Z,18.40
2018-07-20T02:06:06.286Z,18.40
2018-07-20T02:08:34.443Z,18.50
2018-07-20T02:11:02.589Z,18.50
2018-07-20T02:13:30.745Z,18.60
2018-07-20T02:15:59.099Z,18.60
2018-07-20T02:18:27.284Z,18.60
2018-07-20T02:20:55.426Z,18.60
2018-07-20T02:23:24.155Z,18.60
2018-07-20T02:28:20.605Z,18.60
2018-07-20T02:30:48.759Z,18.50
2018-07-20T02:33:16.915Z,18.40
2018-07-20T02:35:45.077Z,18.30
2018-07-20T02:38:13.225Z,18.30
2018-07-20T02:40:41.378Z,18.20
2018-07-20T02:43:09.527Z,18.20
2018-07-20T02:45:37.678Z,18.30
2018-07-20T02:48:05.937Z,18.30
2018-07-20T02:50:34.111Z,18.40
2018-07-20T02:55:30.271Z,18.40
2018-07-20T02:57:58.418Z,18.40
2018-07-20T03:00:26.581Z,18.40
2018-07-20T03:02:54.717Z,18.40
2018-07-20T03:05:22.886Z,18.40
2018-07-20T03:07:51.034Z,18.30
2018-07-20T03:10:19.191Z,18.10
2018-07-20T03:12:47.343Z,18.00
2018-07-20T03:15:15.502Z,18.00
2018-07-20T03:17:43.657Z,18.00
2018-07-20T03:20:11.810Z,17.90
2018-07-20T03:22:39.954Z,18.00
2018-07-20T03:25:08.110Z,18.00
2018-07-20T03:27:42.721Z,18.00
2018-07-20T03:30:10.894Z,18.00
2018-07-20T03:35:07.154Z,17.70
2018-07-20T03:37:35.613Z,17.70
2018-07-20T03:40:03.999Z,17.60
2018-07-20T03:42:32.221Z,17.40
2018-07-20T03:45:00.367Z,17.50
2018-07-20T03:49:56.510Z,17.50
2018-07-20T03:52:24.658Z,17.60
2018-07-20T03:54:52.816Z,17.60
2018-07-20T03:57:20.971Z,17.60
2018-07-20T03:59:49.105Z,17.60
2018-07-20T04:02:17.311Z,17.70
2018-07-20T04:04:45.428Z,17.60
2018-07-20T04:07:13.603Z,17.60
2018-07-20T04:09:41.763Z,17.60
2018-07-20T04:12:10.346Z,17.50
2018-07-20T04:14:38.513Z,17.40
2018-07-20T04:17:06.706Z,17.40
2018-07-20T04:19:34.869Z,17.40
2018-07-20T04:22:03.022Z,17.40
2018-07-20T04:24:31.182Z,17.40
2018-07-20T04:26:59.334Z,17.50
2018-07-20T04:29:27.497Z,17.50
2018-07-20T04:31:55.659Z,17.60
2018-07-20T04:34:23.806Z,17.50
2018-07-20T04:36:52.007Z,17.40
2018-07-20T04:41:48.078Z,17.30
2018-07-20T04:44:16.221Z,17.40
2018-07-20T04:49:12.586Z,17.40
2018-07-20T04:51:40.771Z,17.50
2018-07-20T04:54:08.913Z,17.50
2018-07-20T04:56:37.077Z,17.50
2018-07-20T04:59:05.241Z,17.60
2018-07-20T05:01:33.382Z,17.60
2018-07-20T05:04:01.519Z,17.60
2018-07-20T05:06:29.626Z,17.60
2018-07-20T05:08:57.796Z,17.70
2018-07-20T05:11:25.967Z,17.70
2018-07-20T05:13:54.046Z,17.60
2018-07-20T05:18:50.145Z,17.50
2018-07-20T05:21:18.278Z,17.50
2018-07-20T05:23:46.433Z,17.50
2018-07-20T05:26:14.574Z,17.60
2018-07-20T05:28:42.769Z,17.70
2018-07-20T05:31:10.971Z,17.80
2018-07-20T05:33:39.100Z,17.90
2018-07-20T05:36:07.238Z,18.00
2018-07-20T05:41:03.314Z,18.10
2018-07-20T05:43:31.470Z,18.20
2018-07-20T05:45:59.602Z,18.30
2018-07-20T05:48:27.797Z,18.30
2018-07-20T05:50:55.986Z,18.40
2018-07-20T05:53:24.143Z,18.50
2018-07-20T05:55:52.270Z,18.60
2018-07-20T05:58:20.395Z,18.60
2018-07-20T06:00:48.547Z,18.70
2018-07-20T06:03:16.681Z,18.80
2018-07-20T06:08:12.829Z,18.90
2018-07-20T06:10:41.022Z,18.90
2018-07-20T06:13:09.166Z,19.00
2018-07-20T06:15:37.313Z,19.10
2018-07-20T06:18:05.431Z,19.20
2018-07-20T06:20:33.568Z,19.30
2018-07-20T06:23:01.720Z,19.40
2018-07-20T06:25:29.850Z,19.50
2018-07-20T06:27:57.971Z,19.50
2018-07-20T06:30:26.127Z,19.60
2018-07-20T06:32:54.258Z,19.70
2018-07-20T06:35:22.394Z,19.70
2018-07-20T06:37:50.529Z,19.80
2018-07-20T06:40:18.669Z,19.80
2018-07-20T06:42:46.830Z,19.80
2018-07-20T06:45:15.017Z,19.90
2018-07-20T06:47:43.150Z,20.00
2018-07-20T06:50:15.447Z,20.10
2018-07-20T06:52:43.914Z,20.20
2018-07-20T06:55:12.033Z,20.30
2018-07-20T06:57:40.186Z,20.30
2018-07-20T07:00:08.962Z,20.40
2018-07-20T07:02:37.103Z,20.40
2018-07-20T07:05:06.079Z,20.50
2018-07-20T07:07:34.313Z,20.60
2018-07-20T07:10:02.457Z,20.70
2018-07-20T07:12:30.578Z,20.70
2018-07-20T07:14:58.948Z,20.80
2018-07-20T07:17:26.989Z,20.90
2018-07-20T07:19:55.177Z,20.90
2018-07-20T07:22:23.387Z,21.00
2018-07-20T07:24:51.542Z,21.10
2018-07-20T07:27:19.683Z,21.10
2018-07-20T07:29:47.807Z,21.20
2018-07-20T07:32:15.934Z,21.20
2018-07-20T07:34:44.062Z,21.20
2018-07-20T07:37:12.196Z,21.30
2018-07-20T07:39:40.387Z,21.30
2018-07-20T07:42:08.571Z,21.40
2018-07-20T07:44:36.643Z,21.40
2018-07-20T07:47:04.914Z,21.50
2018-07-20T07:49:33.026Z,21.50
2018-07-20T07:52:01.179Z,21.60
2018-07-20T07:54:29.302Z,21.60
2018-07-20T07:56:57.424Z,21.70
2018-07-20T07:59:25.558Z,21.80
2018-07-20T08:01:53.738Z,21.90
2018-07-20T08:04:21.861Z,22.00
2018-07-20T08:06:49.973Z,22.30
2018-07-20T08:09:18.098Z,22.70
2018-07-20T08:11:46.210Z,22.90
2018-07-20T08:14:14.337Z,23.20
2018-07-20T08:16:42.470Z,23.30
2018-07-20T08:19:10.587Z,23.50
2018-07-20T08:21:38.705Z,23.50
2018-07-20T08:24:07.206Z,23.70
2018-07-20T08:26:35.343Z,23.60
2018-07-20T08:29:03.482Z,23.60
2018-07-20T08:31:31.598Z,23.60
2018-07-20T08:33:59.728Z,23.80
2018-07-20T08:36:27.851Z,23.80
2018-07-20T08:38:56.002Z,23.90
2018-07-20T08:41:24.154Z,24.10
2018-07-20T08:43:52.278Z,24.10
2018-07-20T08:46:20.407Z,24.10
2018-07-20T08:48:48.519Z,24.20
2018-07-20T08:51:16.641Z,24.20
2018-07-20T08:53:44.760Z,24.10
2018-07-20T08:56:12.930Z,24.10
2018-07-20T08:58:41.038Z,24.20
2018-07-20T09:01:09.266Z,24.20
2018-07-20T09:03:37.449Z,24.30
2018-07-20T09:06:05.530Z,24.40
2018-07-20T09:08:33.654Z,24.50
2018-07-20T09:11:01.803Z,24.60
2018-07-20T09:13:29.922Z,24.60
2018-07-20T09:15:58.038Z,24.70
2018-07-20T09:18:26.165Z,24.70
2018-07-20T09:20:54.309Z,24.80
2018-07-20T09:23:22.415Z,24.80
2018-07-20T09:25:50.556Z,24.80
2018-07-20T09:28:18.693Z,24.90
2018-07-20T09:30:46.823Z,25.00
2018-07-20T09:33:14.933Z,25.00
2018-07-20T09:35:43.082Z,25.00
2018-07-20T09:38:11.255Z,25.00
2018-07-20T09:40:39.630Z,25.10
2018-07-20T09:43:07.745Z,25.10
2018-07-20T09:45:35.863Z,25.20
2018-07-20T09:48:04.007Z,25.10
2018-07-20T09:50:32.119Z,25.20
2018-07-20T09:53:00.242Z,25.20
2018-07-20T09:55:28.398Z,25.20
2018-07-20T09:57:56.574Z,25.20
2018-07-20T10:00:30.250Z,25.10
2018-07-20T10:02:58.390Z,25.10
2018-07-20T10:05:26.594Z,25.20
2018-07-20T10:07:54.718Z,25.20
2018-07-20T10:10:22.840Z,25.10
2018-07-20T10:12:50.970Z,25.10
2018-07-20T10:15:19.081Z,24.90
2018-07-20T10:17:47.207Z,25.00
2018-07-20T10:20:15.343Z,25.00
2018-07-20T10:22:43.533Z,25.10
2018-07-20T10:25:11.714Z,25.10
2018-07-20T10:27:39.839Z,25.20
2018-07-20T10:30:08.011Z,25.20
2018-07-20T10:32:36.294Z,25.30
2018-07-20T10:35:04.510Z,25.40
2018-07-20T10:37:32.640Z,25.50
2018-07-20T10:40:00.860Z,25.50
2018-07-20T10:42:28.974Z,25.50
2018-07-20T10:44:57.090Z,25.50
2018-07-20T10:47:25.250Z,25.60
2018-07-20T10:49:53.473Z,25.70
2018-07-20T10:52:21.606Z,25.80
2018-07-20T10:54:49.737Z,25.80
2018-07-20T10:57:17.867Z,25.90
2018-07-20T10:59:46.071Z,26.00
2018-07-20T11:02:14.230Z,26.00
2018-07-20T11:04:42.374Z,26.10
2018-07-20T11:07:10.526Z,26.20
2018-07-20T11:12:07.414Z,26.30
2018-07-20T11:14:35.577Z,26.30
2018-07-20T11:17:03.753Z,26.30
2018-07-20T11:19:31.914Z,26.30
2018-07-20T11:22:00.084Z,26.30
2018-07-20T11:24:28.255Z,26.20
2018-07-20T11:26:56.434Z,26.00
2018-07-20T11:29:24.742Z,25.90
2018-07-20T11:31:52.922Z,25.90
2018-07-20T11:34:21.094Z,25.90
2018-07-20T11:36:49.230Z,25.90
2018-07-20T11:39:17.410Z,25.90
2018-07-20T11:41:45.585Z,25.90
2018-07-20T11:44:13.701Z,25.90
2018-07-20T11:46:41.918Z,26.00
2018-07-20T11:49:10.087Z,26.00
2018-07-20T11:51:38.226Z,26.00
2018-07-20T11:54:06.365Z,26.00
2018-07-20T11:56:34.521Z,26.10
2018-07-20T11:59:02.691Z,26.20
2018-07-20T12:01:30.881Z,26.30
2018-07-20T12:03:59.004Z,26.30
2018-07-20T12:06:27.160Z,26.30
2018-07-20T12:08:55.280Z,26.30
2018-07-20T12:11:23.409Z,26.30
2018-07-20T12:13:51.734Z,26.30
2018-07-20T12:16:19.874Z,26.30
2018-07-20T12:18:47.997Z,26.50
2018-07-20T12:21:16.326Z,26.50
2018-07-20T12:23:44.550Z,26.60
2018-07-20T12:26:12.710Z,26.70
2018-07-20T12:28:40.814Z,26.80
2018-07-20T12:31:08.933Z,26.90
2018-07-20T12:33:37.053Z,26.90
2018-07-20T12:36:05.297Z,26.90
2018-07-20T12:38:33.447Z,26.90
2018-07-20T12:41:01.691Z,26.90
2018-07-20T12:43:29.813Z,27.00
2018-07-20T12:45:57.997Z,27.00
2018-07-20T12:48:26.111Z,27.00
2018-07-20T12:50:54.245Z,27.00
2018-07-20T12:53:22.371Z,27.00
2018-07-20T12:55:50.514Z,27.10
2018-07-20T12:58:18.628Z,27.10
2018-07-20T13:00:46.783Z,27.10
2018-07-20T13:03:14.964Z,27.10
2018-07-20T13:05:43.094Z,27.00
2018-07-20T13:08:11.264Z,27.00
2018-07-20T13:10:39.398Z,27.00
2018-07-20T13:13:07.572Z,27.20
2018-07-20T13:15:35.706Z,27.40
2018-07-20T13:18:03.933Z,27.40
2018-07-20T13:20:32.009Z,27.40
2018-07-20T13:23:00.150Z,27.50
2018-07-20T13:25:28.584Z,27.50
2018-07-20T13:27:56.725Z,27.50
2018-07-20T13:30:24.858Z,27.50
2018-07-20T13:32:52.990Z,27.50
2018-07-20T13:35:21.178Z,27.50
2018-07-20T13:37:49.578Z,27.60
2018-07-20T13:40:17.721Z,27.80
2018-07-20T13:42:45.889Z,27.90
2018-07-20T13:45:14.026Z,28.00
2018-07-20T13:47:42.260Z,28.10
2018-07-20T13:50:10.418Z,28.10
2018-07-20T13:52:38.592Z,28.10
2018-07-20T13:55:06.722Z,28.10
2018-07-20T13:57:34.895Z,28.10
2018-07-20T14:00:03.062Z,28.10
2018-07-20T14:02:31.209Z,28.10
2018-07-20T14:04:59.353Z,28.10
2018-07-20T14:07:27.527Z,28.10
2018-07-20T14:09:55.685Z,28.10
2018-07-20T14:12:23.826Z,28.10
2018-07-20T14:14:51.977Z,28.10
2018-07-20T14:17:20.118Z,28.10
2018-07-20T14:19:48.407Z,28.10
2018-07-20T14:22:16.567Z,28.10
2018-07-20T14:24:44.856Z,28.20
2018-07-20T14:27:12.982Z,28.30
2018-07-20T14:29:41.166Z,28.30
2018-07-20T14:32:09.299Z,28.40
2018-07-20T14:34:37.442Z,28.40
2018-07-20T14:37:06.165Z,28.40
2018-07-20T14:39:34.369Z,28.40
2018-07-20T14:42:02.457Z,28.30
2018-07-20T14:44:30.611Z,28.20
2018-07-20T14:46:58.744Z,28.10
2018-07-20T14:49:26.894Z,28.00
2018-07-20T14:51:55.077Z,27.90
2018-07-20T14:54:23.240Z,27.80
2018-07-20T14:56:51.434Z,27.70
2018-07-20T14:59:19.602Z,27.60
2018-07-20T15:01:47.747Z,27.50
2018-07-20T15:04:15.884Z,27.50
2018-07-20T15:06:44.034Z,27.40
2018-07-20T15:09:13.078Z,27.40
2018-07-20T15:11:41.354Z,27.40
2018-07-20T15:14:09.942Z,27.30
2018-07-20T15:16:38.097Z,27.30
2018-07-20T15:19:06.398Z,27.30
2018-07-20T15:21:34.789Z,27.40
2018-07-20T15:24:03.006Z,27.40
2018-07-20T15:26:31.355Z,27.50
2018-07-20T15:28:59.724Z,27.50
2018-07-20T15:31:28.218Z,27.50
2018-07-20T15:33:56.373Z,27.40
2018-07-20T15:36:24.569Z,27.40
2018-07-20T15:38:52.702Z,27.40
2018-07-20T15:41:21.313Z,27.40
2018-07-20T15:43:49.488Z,27.30
2018-07-20T15:46:17.799Z,27.20
2018-07-20T15:48:45.881Z,27.20
2018-07-20T15:51:14.011Z,27.20
2018-07-20T15:53:42.238Z,27.10
2018-07-20T15:56:10.441Z,27.10
2018-07-20T15:58:38.659Z,27.10
2018-07-20T16:01:07.101Z,27.00
2018-07-20T16:03:35.229Z,27.10
2018-07-20T16:06:03.407Z,27.10
2018-07-20T16:08:31.536Z,27.10
2018-07-20T16:10:59.711Z,27.20
2018-07-20T16:13:27.842Z,27.20
2018-07-20T16:15:56.011Z,27.10
2018-07-20T16:18:24.208Z,27.10
2018-07-20T16:20:52.370Z,27.10
2018-07-20T16:23:21.547Z,27.00
2018-07-20T16:25:49.729Z,26.90
2018-07-20T16:28:18.067Z,26.90
2018-07-20T16:30:46.278Z,26.90
2018-07-20T16:33:14.436Z,26.80
2018-07-20T16:35:42.575Z,26.70
2018-07-20T16:38:10.740Z,26.80
2018-07-20T16:40:38.922Z,26.90
2018-07-20T16:43:07.114Z,27.10
2018-07-20T16:45:35.242Z,27.10
2018-07-20T16:48:03.382Z,27.20
2018-07-20T16:50:31.541Z,27.30
2018-07-20T16:52:59.682Z,27.30
2018-07-20T16:55:27.819Z,27.40
2018-07-20T16:57:55.962Z,27.30
2018-07-20T17:00:24.113Z,27.40
2018-07-20T17:02:52.264Z,27.40
2018-07-20T17:05:20.376Z,27.40
2018-07-20T17:07:48.515Z,27.40
2018-07-20T17:10:16.637Z,27.40
2018-07-20T17:12:44.798Z,27.30
2018-07-20T17:15:12.910Z,27.30
2018-07-20T17:17:41.034Z,27.30
2018-07-20T17:20:09.197Z,27.30
2018-07-20T17:22:37.316Z,27.30
2018-07-20T17:25:05.581Z,27.30
2018-07-20T17:27:33.706Z,27.20
2018-07-20T17:32:29.750Z,27.20
2018-07-20T17:34:57.870Z,27.10
2018-07-20T17:37:26.158Z,27.00
2018-07-20T17:39:54.266Z,26.80
2018-07-20T17:42:22.407Z,26.70
2018-07-20T17:44:50.570Z,26.60
2018-07-20T17:47:18.723Z,26.40
2018-07-20T17:49:46.867Z,26.40
2018-07-20T17:52:15.175Z,26.30
2018-07-20T17:54:43.353Z,26.30
2018-07-20T17:57:11.479Z,26.20
2018-07-20T17:59:39.622Z,26.20
2018-07-20T18:02:07.771Z,26.20
2018-07-20T18:04:36.176Z,26.20
2018-07-20T18:07:04.322Z,26.10
2018-07-20T18:09:32.457Z,26.10
2018-07-20T18:12:00.594Z,26.10
2018-07-20T18:14:28.758Z,26.10
2018-07-20T18:16:56.906Z,26.00
2018-07-20T18:19:25.050Z,26.00
2018-07-20T18:21:53.225Z,26.00
2018-07-20T18:24:21.682Z,25.90
2018-07-20T18:26:49.899Z,25.90
2018-07-20T18:29:17.967Z,25.80
2018-07-20T18:31:46.118Z,25.80
2018-07-20T18:34:14.257Z,25.70
2018-07-20T18:36:42.398Z,25.70
2018-07-20T18:39:11.774Z,25.60
2018-07-20T18:41:40.783Z,25.60
2018-07-20T18:44:09.257Z,25.60
2018-07-20T18:46:37.762Z,25.60
2018-07-20T18:49:05.934Z,25.50
2018-07-20T18:51:34.097Z,25.50
2018-07-20T18:54:02.238Z,25.50
2018-07-20T18:56:30.378Z,25.50
2018-07-20T18:58:58.638Z,25.40
2018-07-20T19:01:26.771Z,25.40
2018-07-20T19:03:54.914Z,25.40
2018-07-20T19:06:23.158Z,25.40
2018-07-20T19:08:51.277Z,25.30
2018-07-20T19:11:19.458Z,25.30
2018-07-20T19:13:47.596Z,25.30
2018-07-20T19:16:15.737Z,25.20
2018-07-20T19:18:43.895Z,25.20
2018-07-20T19:21:12.019Z,25.20
2018-07-20T19:23:40.336Z,25.20
2018-07-20T19:26:08.404Z,25.10
2018-07-20T19:28:36.525Z,25.10
2018-07-20T19:31:04.654Z,25.00
2018-07-20T19:33:32.786Z,25.00
2018-07-20T19:36:00.931Z,25.00
2018-07-20T19:38:29.175Z,25.00
2018-07-20T19:40:57.319Z,24.90
2018-07-20T19:43:25.482Z,24.90
2018-07-20T19:45:53.629Z,24.90
2018-07-20T19:50:49.659Z,24.90
2018-07-20T19:53:17.813Z,24.90
2018-07-20T19:55:45.949Z,24.90
2018-07-20T19:58:14.081Z,24.80
2018-07-20T20:00:42.214Z,24.90
2018-07-20T20:03:10.379Z,24.80
2018-07-20T20:05:38.706Z,24.80
2018-07-20T20:08:06.946Z,24.80
2018-07-20T20:10:35.104Z,24.80
2018-07-20T20:13:03.390Z,24.80
2018-07-20T20:15:31.693Z,24.80
2018-07-20T20:18:00.011Z,24.70
2018-07-20T20:20:28.174Z,24.70
2018-07-20T20:22:56.310Z,24.70
2018-07-20T20:25:24.507Z,24.70
2018-07-20T20:27:52.692Z,24.70
2018-07-20T20:30:20.858Z,24.70
2018-07-20T20:32:49.023Z,24.60
2018-07-20T20:35:17.183Z,24.60
2018-07-20T20:37:45.319Z,24.60
2018-07-20T20:40:13.482Z,24.60
2018-07-20T20:42:41.625Z,24.60
2018-07-20T20:45:09.987Z,24.60
2018-07-20T20:47:38.316Z,24.60
2018-07-20T20:50:06.942Z,24.50
2018-07-20T20:52:35.546Z,24.50
2018-07-20T20:55:03.698Z,24.50
2018-07-20T20:57:31.865Z,24.40
2018-07-20T21:00:00.103Z,24.40
2018-07-20T21:02:28.239Z,24.40
2018-07-20T21:04:56.526Z,24.40
2018-07-20T21:07:24.661Z,24.40
2018-07-20T21:09:52.834Z,24.40
2018-07-20T21:12:21.179Z,24.40
2018-07-20T21:14:49.321Z,24.40
2018-07-20T21:17:17.453Z,24.30
2018-07-20T21:19:45.678Z,24.30
2018-07-20T21:22:13.905Z,24.30
2018-07-20T21:24:42.039Z,24.20
2018-07-20T21:27:10.176Z,24.20
2018-07-20T21:29:38.403Z,24.20
2018-07-20T21:32:06.717Z,24.20
2018-07-20T21:34:35.066Z,24.10
2018-07-20T21:37:03.446Z,24.10
2018-07-20T21:39:31.597Z,24.10
2018-07-20T21:41:59.686Z,24.00
2018-07-20T21:44:27.826Z,24.00
2018-07-20T21:46:55.949Z,23.90
2018-07-20T21:49:24.074Z,23.90
2018-07-20T21:51:52.187Z,23.90
2018-07-20T21:54:20.309Z,23.90
2018-07-20T21:56:48.434Z,23.90
2018-07-20T21:59:16.549Z,23.90
2018-07-20T22:01:44.725Z,23.80
2018-07-20T22:04:12.842Z,23.80
2018-07-20T22:06:40.981Z,23.70
2018-07-20T22:09:10.475Z,23.50
2018-07-20T22:11:38.652Z,23.40
2018-07-20T22:14:06.951Z,23.30
2018-07-20T22:16:35.523Z,23.20
2018-07-20T22:19:03.898Z,23.10
2018-07-20T22:21:32.034Z,23.00
2018-07-20T22:24:00.165Z,22.90
2018-07-20T22:26:28.318Z,22.90
2018-07-20T22:28:56.473Z,22.90
2018-07-20T22:31:24.638Z,22.90
2018-07-20T22:33:52.778Z,22.90
2018-07-20T22:36:20.913Z,22.90
2018-07-20T22:38:49.081Z,22.90
2018-07-20T22:41:17.232Z,22.90
2018-07-20T22:43:45.399Z,22.90
2018-07-20T22:46:13.567Z,22.90
2018-07-20T22:51:09.691Z,22.90
2018-07-20T22:53:37.839Z,22.90
2018-07-20T22:56:05.985Z,22.80
2018-07-20T22:58:34.129Z,22.80
2018-07-20T23:01:02.279Z,22.80
2018-07-20T23:03:30.419Z,22.80
2018-07-20T23:05:58.579Z,22.70
2018-07-20T23:08:26.723Z,22.70
2018-07-20T23:10:54.865Z,22.70
2018-07-20T23:13:23.001Z,22.70
2018-07-20T23:15:51.154Z,22.60
2018-07-20T23:18:19.286Z,22.70
2018-07-20T23:20:47.454Z,22.60
2018-07-20T23:23:15.598Z,22.60
2018-07-20T23:25:44.569Z,22.70
2018-07-20T23:28:12.790Z,22.60
2018-07-20T23:30:40.966Z,22.60
2018-07-20T23:33:09.117Z,22.60
2018-07-20T23:35:37.351Z,22.50
2018-07-20T23:38:05.727Z,22.50
2018-07-20T23:40:33.869Z,22.50
2018-07-20T23:43:02.018Z,22.50
2018-07-20T23:45:30.167Z,22.50
2018-07-20T23:47:58.332Z,22.50
2018-07-20T23:50:26.458Z,22.40
2018-07-20T23:52:54.618Z,22.40
2018-07-20T23:55:22.761Z,22.40
2018-07-20T23:57:50.909Z,22.40
